Big Bear Station Historical Data
Daily Summary for May 27, 2017 Units:  English    Metric   Both
« Previous Day
Next Day »
Daily Weekly Monthly Yearly Custom
  High: Low: Average:
Temperature: 73.0 °F 38.1 °F 55 °F
Dew Point: 40.2 °F 5.8 °F 23.5 °F
Humidity: 67 % 14 % 31 %
Wind Speed: 6.3 mph 0.0 mph 2.3 mph
Wind Gust: -999.0 mph - -
Wind:- - WSW
Pressure: 30.23 in 30.13 in -
Precipitation: 0.00 in    
Historical Graphs
 
 
Tabular Data for May 27, 2017
Time Temperature Dew Point Pressure Wind Wind Speed Wind Gust Humidity Rainfall Rate (Hourly)
00:14 46.4 °F 11.5 °F 30.14 in South 1.1 mph -999.0 mph 24 % 0 in
00:30 45.7 °F 10.0 °F 30.14 in Calm   -999.0 mph 23 % 0 in
00:45 44.4 °F 14.1 °F 30.14 in South 2.7 mph -999.0 mph 29 % 0 in
01:01 43.3 °F 18.1 °F 30.14 in SW 1.1 mph -999.0 mph 36 % 0 in
01:16 42.6 °F 19.9 °F 30.14 in Calm   -999.0 mph 40 % 0 in
01:31 42.6 °F 13.3 °F 30.14 in South 1.7 mph -999.0 mph 30 % 0 in
01:46 41.5 °F 9.1 °F 30.14 in South 1.7 mph -999.0 mph 26 % 0 in
02:01 41.0 °F 9.5 °F 30.14 in Calm   -999.0 mph 27 % 0 in
02:17 41.0 °F 7.8 °F 30.13 in South 1.7 mph -999.0 mph 25 % 0 in
02:32 40.8 °F 5.8 °F 30.13 in Calm   -999.0 mph 23 % 0 in
02:47 40.3 °F 11.3 °F 30.13 in South 2.2 mph -999.0 mph 30 % 0 in
03:02 40.3 °F 16.7 °F 30.13 in SSW 1.7 mph -999.0 mph 38 % 0 in
03:17 40.3 °F 14.1 °F 30.13 in South 1.7 mph -999.0 mph 34 % 0 in
03:33 40.5 °F 11.5 °F 30.13 in SSE 1.7 mph -999.0 mph 30 % 0 in
03:48 40.5 °F 15.0 °F 30.13 in SSW 1.7 mph -999.0 mph 35 % 0 in
04:03 40.3 °F 11.3 °F 30.13 in South 1.7 mph -999.0 mph 30 % 0 in
04:18 39.4 °F 14.6 °F 30.13 in SSE 1.7 mph -999.0 mph 36 % 0 in
04:33 39.2 °F 22.1 °F 30.13 in Calm   -999.0 mph 50 % 0 in
04:49 39.7 °F 14.3 °F 30.13 in South 2.2 mph -999.0 mph 35 % 0 in
05:05 38.8 °F 17.7 °F 30.13 in South 1.7 mph -999.0 mph 42 % 0 in
05:20 38.8 °F 19.3 °F 30.13 in SSW 2.2 mph -999.0 mph 45 % 0 in
05:35 38.3 °F 19.3 °F 30.14 in Calm   -999.0 mph 46 % 0 in
05:50 38.5 °F 20.0 °F 30.14 in SSE 1.7 mph -999.0 mph 47 % 0 in
06:05 38.1 °F 21.6 °F 30.14 in Calm   -999.0 mph 51 % 0 in
06:21 38.8 °F 21.7 °F 30.14 in Calm   -999.0 mph 50 % 0 in
06:27 39.0 °F 26.3 °F 30.14 in SSW 1.7 mph -999.0 mph 60 % 0 in
06:42 39.7 °F 28.5 °F 30.14 in Calm   -999.0 mph 64 % 0 in
06:57 39.4 °F 29.4 °F 30.14 in Calm   -999.0 mph 67 % 0 in
07:12 41.5 °F 30.2 °F 30.15 in South 1.7 mph -999.0 mph 64 % 0 in
07:28 42.6 °F 28.4 °F 30.15 in Calm   -999.0 mph 57 % 0 in
07:43 43.0 °F 28.8 °F 30.15 in Calm   -999.0 mph 57 % 0 in
07:58 45.1 °F 29.4 °F 30.16 in Calm   -999.0 mph 54 % 0 in
08:13 46.8 °F 29.1 °F 30.16 in Calm   -999.0 mph 50 % 0 in
08:28 50.2 °F 18.3 °F 30.16 in Calm   -999.0 mph 28 % 0 in
08:44 52.7 °F 22.1 °F 30.17 in Calm   -999.0 mph 30 % 0 in
08:59 55.4 °F 16.1 °F 30.17 in NNW 1.7 mph -999.0 mph 21 % 0 in
09:14 57.9 °F 14.6 °F 30.17 in NW 3.7 mph -999.0 mph 18 % 0 in
09:29 60.4 °F 14.0 °F 30.17 in NNW 3.2 mph -999.0 mph 16 % 0 in
09:44 61.9 °F 16.6 °F 30.17 in NW 2.7 mph -999.0 mph 17 % 0 in
10:15 63.5 °F 15.0 °F 30.17 in NNW 5.3 mph -999.0 mph 15 % 0 in
10:30 63.5 °F 13.4 °F 30.17 in WNW 3.2 mph -999.0 mph 14 % 0 in
10:45 64.9 °F 17.6 °F 30.18 in NW 1.7 mph -999.0 mph 16 % 0 in
11:00 64.8 °F 16.0 °F 30.18 in North 4.2 mph -999.0 mph 15 % 0 in
11:16 65.3 °F 23.2 °F 30.18 in NNE 3.7 mph -999.0 mph 20 % 0 in
11:31 66.9 °F 23.3 °F 30.18 in NW 4.7 mph -999.0 mph 19 % 0 in
11:47 67.8 °F 24.0 °F 30.19 in WNW 4.7 mph -999.0 mph 19 % 0 in
12:02 67.6 °F 27.4 °F 30.19 in WNW 4.7 mph -999.0 mph 22 % 0 in
12:18 69.4 °F 26.6 °F 30.19 in NNW 2.7 mph -999.0 mph 20 % 0 in
12:33 69.3 °F 30.9 °F 30.20 in NNW 4.2 mph -999.0 mph 24 % 0 in
12:49 70.3 °F 30.7 °F 30.20 in WNW 6.3 mph -999.0 mph 23 % 0 in
13:04 71.4 °F 30.6 °F 30.20 in NW 4.7 mph -999.0 mph 22 % 0 in
13:20 71.4 °F 28.2 °F 30.20 in NNW 5.8 mph -999.0 mph 20 % 0 in
13:36 72.9 °F 31.8 °F 30.20 in West 4.2 mph -999.0 mph 22 % 0 in
13:51 73.0 °F 34.1 °F 30.20 in NW 4.7 mph -999.0 mph 24 % 0 in
14:06 72.3 °F 37.4 °F 30.20 in WNW 5.3 mph -999.0 mph 28 % 0 in
14:21 72.0 °F 36.2 °F 30.20 in NNW 6.3 mph -999.0 mph 27 % 0 in
14:37 72.0 °F 38.0 °F 30.20 in NNW 5.3 mph -999.0 mph 29 % 0 in
14:52 71.4 °F 36.6 °F 30.20 in WNW 4.2 mph -999.0 mph 28 % 0 in
15:08 70.3 °F 36.5 °F 30.20 in WNW 3.7 mph -999.0 mph 29 % 0 in
15:23 70.7 °F 40.2 °F 30.20 in WNW 4.7 mph -999.0 mph 33 % 0 in
15:38 71.1 °F 38.1 °F 30.20 in NW 4.7 mph -999.0 mph 30 % 0 in
15:53 71.4 °F 35.7 °F 30.20 in ENE 4.2 mph -999.0 mph 27 % 0 in
16:09 70.9 °F 33.3 °F 30.20 in NW 5.3 mph -999.0 mph 25 % 0 in
16:24 70.5 °F 34.9 °F 30.20 in NNW 5.8 mph -999.0 mph 27 % 0 in
16:39 72.1 °F 37.2 °F 30.20 in NW 4.7 mph -999.0 mph 28 % 0 in
16:54 72.5 °F 36.6 °F 30.20 in WSW 3.2 mph -999.0 mph 27 % 0 in
17:09 71.4 °F 38.4 °F 30.20 in NNW 4.7 mph -999.0 mph 30 % 0 in
17:25 71.4 °F 36.6 °F 30.20 in WNW 4.2 mph -999.0 mph 28 % 0 in
17:40 70.7 °F 34.1 °F 30.20 in NNW 3.7 mph -999.0 mph 26 % 0 in
17:55 70.7 °F 36.9 °F 30.20 in NW 3.2 mph -999.0 mph 29 % 0 in
18:10 69.8 °F 36.1 °F 30.20 in NNE 3.2 mph -999.0 mph 29 % 0 in
18:26 69.3 °F 35.7 °F 30.20 in NNW 3.2 mph -999.0 mph 29 % 0 in
18:41 69.1 °F 32.8 °F 30.20 in NNW 3.2 mph -999.0 mph 26 % 0 in
18:57 67.6 °F 29.5 °F 30.20 in SW 2.2 mph -999.0 mph 24 % 0 in
19:12 66.2 °F 28.3 °F 30.20 in NW 2.7 mph -999.0 mph 24 % 0 in
19:27 62.2 °F 22.9 °F 30.20 in NW 1.7 mph -999.0 mph 22 % 0 in
19:42 61.0 °F 21.9 °F 30.21 in SE 1.1 mph -999.0 mph 22 % 0 in
19:58 59.5 °F 20.6 °F 30.21 in Calm   -999.0 mph 22 % 0 in
20:13 57.7 °F 19.1 °F 30.21 in Calm   -999.0 mph 22 % 0 in
20:28 56.1 °F 19.8 °F 30.21 in Calm   -999.0 mph 24 % 0 in
20:43 53.6 °F 18.6 °F 30.21 in Calm   -999.0 mph 25 % 0 in
20:58 51.6 °F 16.9 °F 30.21 in Calm   -999.0 mph 25 % 0 in
21:14 50.2 °F 17.5 °F 30.22 in Calm   -999.0 mph 27 % 0 in
21:29 49.1 °F 17.4 °F 30.22 in South 2.2 mph -999.0 mph 28 % 0 in
21:44 48.4 °F 17.6 °F 30.22 in South 1.1 mph -999.0 mph 29 % 0 in
21:59 47.8 °F 19.3 °F 30.22 in South 2.2 mph -999.0 mph 32 % 0 in
22:15 47.3 °F 20.3 °F 30.23 in South 2.2 mph -999.0 mph 34 % 0 in
22:30 46.6 °F 22.3 °F 30.23 in Calm   -999.0 mph 38 % 0 in
22:45 46.0 °F 23.0 °F 30.23 in Calm   -999.0 mph 40 % 0 in
23:00 45.5 °F 20.1 °F 30.23 in Calm   -999.0 mph 36 % 0 in
23:15 45.0 °F 21.5 °F 30.23 in Calm   -999.0 mph 39 % 0 in
23:31 44.6 °F 23.5 °F 30.23 in Calm   -999.0 mph 43 % 0 in
23:46 44.1 °F 23.0 °F 30.23 in SSE 1.7 mph -999.0 mph 43 % 0 in
Big Bear CA Weather
Compliments of Weather Underground - 1.5 mb